Time;durP1;ratioP1;P1;durP2;ratioP2;P2;SDS_P1;SDS_P2;PMS_P1;PMS_P2;Temp;Humidity;BMP_temperature;BMP_pressure;BME280_temperature;BME280_humidity;BME280_pressure;Samples;Min_cycle;Max_cycle;Signal;HPM_P1;HPM_P2
2022/10/11 00:02:23;;;;;;;13.90;7.33;;;15.10;97.50;;;;;;5030440;28;20203;-74
2022/10/11 00:04:51;;;;;;;13.00;6.50;;;15.00;97.70;;;;;;5019889;28;20470;-72
2022/10/11 00:07:18;;;;;;;13.43;6.67;;;14.90;97.70;;;;;;5022294;28;20226;-71
2022/10/11 00:09:44;;;;;;;13.87;6.90;;;14.90;97.90;;;;;;5029619;28;20527;-73
2022/10/11 00:12:10;;;;;;;20.47;8.77;;;14.90;98.00;;;;;;5030385;28;20988;-72
2022/10/11 00:14:36;;;;;;;13.17;7.63;;;14.90;98.10;;;;;;5026606;28;20450;-72
2022/10/11 00:17:02;;;;;;;11.57;6.80;;;14.80;98.10;;;;;;5026263;28;20439;-70
2022/10/11 00:19:28;;;;;;;16.50;6.87;;;14.80;98.30;;;;;;5032323;28;20429;-71
2022/10/11 00:21:53;;;;;;;12.10;6.83;;;14.80;98.30;;;;;;5031910;28;20204;-73
2022/10/11 00:24:19;;;;;;;23.83;8.00;;;14.80;98.30;;;;;;5032014;28;20369;-72
2022/10/11 00:26:45;;;;;;;13.07;6.97;;;14.70;98.20;;;;;;5030586;28;20196;-71
2022/10/11 00:29:11;;;;;;;13.70;7.30;;;14.60;98.40;;;;;;5035107;28;20178;-69
2022/10/11 00:31:37;;;;;;;18.10;7.50;;;14.60;98.50;;;;;;5034548;28;20717;-70
2022/10/11 00:34:03;;;;;;;10.20;6.40;;;14.50;98.50;;;;;;5024973;28;20503;-71
2022/10/11 00:36:28;;;;;;;20.50;9.10;;;14.50;98.60;;;;;;5025007;28;20460;-72
2022/10/11 00:38:54;;;;;;;24.43;8.67;;;14.50;98.80;;;;;;5030200;28;20181;-73
2022/10/11 00:41:20;;;;;;;18.53;8.57;;;14.40;98.80;;;;;;5030591;28;20235;-72
2022/10/11 00:43:45;;;;;;;20.80;9.93;;;14.30;98.80;;;;;;5030087;28;20224;-71
2022/10/11 00:46:17;;;;;;;20.20;8.60;;;14.30;98.90;;;;;;5026337;28;20578;-72
2022/10/11 00:48:49;;;;;;;21.07;7.43;;;14.20;99.00;;;;;;5030000;28;20235;-71
2022/10/11 00:51:37;;;;;;;20.37;8.30;;;14.20;99.10;;;;;;5030748;28;20935;-71
2022/10/11 00:54:03;;;;;;;18.70;7.17;;;14.30;99.20;;;;;;5024794;28;20523;-71
2022/10/11 00:56:36;;;;;;;13.07;7.80;;;14.30;99.30;;;;;;5022778;28;20470;-72
2022/10/11 00:59:07;;;;;;;20.87;8.00;;;14.30;99.30;;;;;;5030535;28;20498;-72
2022/10/11 01:01:33;;;;;;;16.03;7.50;;;14.30;99.40;;;;;;5032144;28;20463;-70
2022/10/11 01:04:00;;;;;;;14.27;7.97;;;14.30;99.30;;;;;;5029762;28;20417;-70
2022/10/11 01:06:26;;;;;;;13.33;7.17;;;14.40;99.30;;;;;;5027562;28;20204;-72
2022/10/11 01:08:52;;;;;;;14.20;7.00;;;14.30;99.20;;;;;;5036468;28;20446;-71
2022/10/11 01:11:21;;;;;;;15.03;7.23;;;14.30;99.10;;;;;;5036098;28;20265;-72
2022/10/11 01:14:10;;;;;;;17.50;8.57;;;14.30;99.10;;;;;;5033605;28;20535;-71
2022/10/11 01:16:51;;;;;;;18.97;8.23;;;14.20;99.00;;;;;;5032127;28;20842;-73
2022/10/11 01:19:43;;;;;;;20.30;8.40;;;14.10;99.00;;;;;;5034171;28;20574;-72
2022/10/11 01:22:23;;;;;;;15.43;8.40;;;14.10;99.20;;;;;;5033052;28;20471;-71
2022/10/11 01:25:07;;;;;;;18.60;7.63;;;14.00;99.00;;;;;;5025711;28;20462;-72
2022/10/11 01:27:37;;;;;;;13.23;7.30;;;14.00;99.30;;;;;;5032762;28;20443;-70
2022/10/11 01:30:26;;;;;;;14.60;7.30;;;14.10;99.40;;;;;;5026170;28;20506;-71
2022/10/11 01:33:40;;;;;;;20.43;8.20;;;14.10;99.40;;;;;;5030309;28;20431;-70
2022/10/11 01:36:26;;;;;;;11.37;7.40;;;14.10;99.40;;;;;;4965273;28;20478;-70
2022/10/11 01:39:11;;;;;;;14.17;7.90;;;14.00;99.30;;;;;;4965516;28;20415;-71
2022/10/11 01:41:46;;;;;;;16.40;7.43;;;14.10;99.30;;;;;;4978533;28;20573;-71
2022/10/11 01:44:12;;;;;;;17.73;7.60;;;14.00;99.20;;;;;;4986403;28;20438;-71
2022/10/11 01:46:39;;;;;;;15.43;7.70;;;14.10;99.30;;;;;;4974834;28;20447;-70
2022/10/11 01:49:05;;;;;;;16.10;7.53;;;14.10;99.30;;;;;;4980439;28;20426;-68
2022/10/11 01:51:36;;;;;;;19.40;7.50;;;14.00;99.20;;;;;;4979264;28;20885;-69
2022/10/11 01:54:23;;;;;;;24.17;9.40;;;13.90;99.10;;;;;;4982565;28;20853;-70
2022/10/11 01:57:22;;;;;;;11.00;6.67;;;13.90;99.20;;;;;;4982022;28;20442;-71
2022/10/11 02:00:04;;;;;;;13.30;7.37;;;13.90;99.20;;;;;;4958284;28;20423;-72
2022/10/11 02:02:44;;;;;;;16.87;8.10;;;13.90;99.20;;;;;;4972559;28;20489;-74
2022/10/11 02:05:32;;;;;;;10.17;6.33;;;13.90;99.30;;;;;;4961022;28;20473;-71
2022/10/11 02:08:23;;;;;;;17.57;8.10;;;13.90;99.30;;;;;;4965462;28;20906;-71
2022/10/11 02:10:54;;;;;;;17.73;7.57;;;14.00;99.30;;;;;;4971884;28;20533;-72
2022/10/11 02:13:37;;;;;;;15.03;8.30;;;13.90;99.30;;;;;;5018773;28;20439;-72
2022/10/11 02:16:08;;;;;;;17.10;7.87;;;14.00;99.30;;;;;;5023890;28;20443;-70
2022/10/11 02:18:38;;;;;;;17.83;9.33;;;13.90;99.30;;;;;;5033263;28;20455;-71
2022/10/11 02:21:07;;;;;;;19.77;8.87;;;14.00;99.30;;;;;;5033356;28;20475;-72
2022/10/11 02:23:39;;;;;;;16.90;8.13;;;14.00;99.30;;;;;;5031860;28;20507;-70
2022/10/11 02:26:07;;;;;;;17.63;8.50;;;14.00;99.30;;;;;;5032377;28;20466;-71
2022/10/11 02:28:35;;;;;;;17.80;7.70;;;14.10;99.30;;;;;;5033375;28;20444;-71
2022/10/11 02:31:04;;;;;;;13.60;8.00;;;14.10;99.30;;;;;;5031649;28;20428;-71
2022/10/11 02:33:36;;;;;;;19.63;9.17;;;14.20;99.20;;;;;;5032662;28;20432;-71
2022/10/11 02:36:09;;;;;;;16.33;9.80;;;14.20;99.00;;;;;;5032304;28;20455;-70
2022/10/11 02:38:46;;;;;;;19.70;8.53;;;14.10;99.00;;;;;;5024750;28;20425;-71
2022/10/11 02:41:20;;;;;;;16.63;8.83;;;14.10;99.00;;;;;;5029575;28;20531;-71
2022/10/11 02:43:56;;;;;;;16.60;9.10;;;14.20;99.00;;;;;;5030458;28;20418;-71
2022/10/11 02:46:22;;;;;;;17.30;7.97;;;14.20;99.00;;;;;;5024443;28;20451;-71
2022/10/11 02:48:49;;;;;;;20.43;9.93;;;14.30;99.00;;;;;;5030747;28;20423;-71
2022/10/11 02:51:16;;;;;;;19.90;9.27;;;14.40;98.90;;;;;;5029776;28;20562;-70
2022/10/11 02:53:42;;;;;;;20.40;8.67;;;14.40;98.80;;;;;;5028868;28;20436;-71
2022/10/11 02:56:07;;;;;;;19.53;9.90;;;14.40;98.70;;;;;;5027978;28;20464;-71
2022/10/11 02:58:33;;;;;;;36.63;13.43;;;14.40;98.50;;;;;;5030721;28;20189;-72
2022/10/11 03:00:58;;;;;;;27.30;13.10;;;14.30;98.40;;;;;;5029048;28;20212;-72
2022/10/11 03:03:24;;;;;;;28.50;12.10;;;14.30;98.40;;;;;;5029199;28;20659;-71
2022/10/11 03:05:49;;;;;;;26.20;12.40;;;14.30;98.30;;;;;;5022724;28;20228;-71
2022/10/11 03:08:16;;;;;;;24.60;11.90;;;14.40;98.30;;;;;;5027639;28;20181;-72
2022/10/11 03:10:42;;;;;;;21.63;11.60;;;14.50;98.10;;;;;;5029009;28;20188;-71
2022/10/11 03:13:07;;;;;;;27.67;11.40;;;14.50;97.80;;;;;;5027345;28;20436;-72
2022/10/11 03:15:33;;;;;;;23.90;11.13;;;14.60;97.70;;;;;;5025749;28;20208;-71
2022/10/11 03:17:59;;;;;;;31.20;13.80;;;14.60;97.60;;;;;;5026545;28;20216;-71
2022/10/11 03:20:25;;;;;;;28.47;13.00;;;14.60;97.30;;;;;;5023335;28;20189;-71
2022/10/11 03:22:51;;;;;;;26.10;12.70;;;14.50;97.10;;;;;;5029087;28;20475;-71
2022/10/11 03:25:17;;;;;;;21.53;10.97;;;14.60;97.20;;;;;;5027431;28;20358;-71
2022/10/11 03:27:42;;;;;;;27.80;12.90;;;14.60;97.20;;;;;;5029153;28;20220;-71
2022/10/11 03:30:09;;;;;;;29.10;13.70;;;14.60;97.30;;;;;;5024941;28;20420;-72
2022/10/11 03:32:35;;;;;;;26.70;13.43;;;14.60;97.20;;;;;;5026767;28;20204;-72
2022/10/11 03:35:00;;;;;;;25.60;11.90;;;14.70;97.20;;;;;;5026877;28;20486;-71
2022/10/11 03:37:26;;;;;;;21.90;11.60;;;14.70;97.20;;;;;;5029878;28;20208;-71
2022/10/11 03:39:52;;;;;;;33.83;13.70;;;14.80;97.10;;;;;;5029532;28;20227;-72
2022/10/11 03:42:17;;;;;;;25.70;13.20;;;14.80;97.10;;;;;;5029224;28;20213;-71
2022/10/11 03:44:43;;;;;;;20.77;11.40;;;14.90;97.10;;;;;;5024636;28;20209;-71
2022/10/11 03:47:09;;;;;;;22.50;11.43;;;14.90;97.00;;;;;;5027284;28;20182;-71
2022/10/11 03:49:34;;;;;;;26.57;12.87;;;14.80;97.00;;;;;;5029575;28;20252;-70
2022/10/11 03:52:00;;;;;;;25.00;12.73;;;14.80;97.00;;;;;;5028996;28;20204;-71
2022/10/11 03:54:26;;;;;;;23.50;12.33;;;14.80;97.00;;;;;;5026902;28;20190;-71
2022/10/11 03:56:51;;;;;;;26.07;13.37;;;14.90;97.00;;;;;;5026200;28;20638;-71
2022/10/11 03:59:17;;;;;;;26.73;11.93;;;14.90;97.00;;;;;;5027796;28;20251;-71
2022/10/11 04:01:42;;;;;;;26.27;12.80;;;14.90;96.90;;;;;;5028154;28;20250;-71
2022/10/11 04:04:08;;;;;;;27.73;14.23;;;14.90;96.80;;;;;;5023123;28;20204;-71
2022/10/11 04:06:34;;;;;;;34.90;17.63;;;14.90;96.70;;;;;;5026441;28;20236;-71
2022/10/11 04:09:00;;;;;;;39.47;16.53;;;14.80;96.70;;;;;;5026551;28;20228;-71
2022/10/11 04:11:25;;;;;;;36.37;16.77;;;14.70;96.70;;;;;;5029418;28;20272;-71
2022/10/11 04:13:51;;;;;;;37.60;16.57;;;14.50;96.80;;;;;;5022796;28;21023;-70
2022/10/11 04:16:17;;;;;;;42.33;19.03;;;14.50;96.90;;;;;;5025588;28;20288;-71
2022/10/11 04:18:42;;;;;;;38.53;18.30;;;14.50;97.10;;;;;;5021797;28;20432;-72
2022/10/11 04:21:08;;;;;;;41.27;17.37;;;14.50;97.10;;;;;;5025517;28;20266;-71
2022/10/11 04:23:34;;;;;;;36.27;17.83;;;14.40;97.30;;;;;;5021720;28;20246;-71
2022/10/11 04:26:04;;;;;;;41.57;17.70;;;14.40;97.50;;;;;;5028282;28;20205;-71
2022/10/11 04:28:30;;;;;;;40.80;19.23;;;14.40;97.60;;;;;;5028100;28;20259;-71
2022/10/11 04:30:55;;;;;;;42.50;18.17;;;14.50;97.60;;;;;;5030895;28;20811;-72
2022/10/11 04:33:21;;;;;;;39.60;17.50;;;14.50;97.60;;;;;;5030076;28;20537;-72
2022/10/11 04:35:46;;;;;;;39.33;16.10;;;14.50;97.50;;;;;;5022156;28;20205;-72
2022/10/11 04:38:12;;;;;;;45.53;18.10;;;14.50;97.50;;;;;;5030447;28;20193;-72
2022/10/11 04:40:38;;;;;;;39.97;18.63;;;14.50;97.40;;;;;;5034372;28;20188;-72
2022/10/11 04:43:03;;;;;;;35.20;16.57;;;14.50;97.40;;;;;;5028070;28;20196;-70
2022/10/11 04:45:29;;;;;;;43.10;19.80;;;14.60;97.50;;;;;;5024610;28;20283;-72
2022/10/11 04:47:54;;;;;;;43.10;19.80;;;14.60;97.30;;;;;;5028578;28;20202;-71
2022/10/11 04:50:20;;;;;;;40.63;17.90;;;14.50;96.90;;;;;;5030740;28;20204;-72
2022/10/11 04:52:46;;;;;;;35.57;17.33;;;14.40;97.20;;;;;;5028352;28;20225;-71
2022/10/11 04:55:12;;;;;;;41.10;17.87;;;14.50;97.30;;;;;;5027755;28;20279;-70
2022/10/11 04:57:38;;;;;;;47.73;20.07;;;14.60;97.30;;;;;;5028593;28;20197;-71
2022/10/11 05:00:04;;;;;;;42.47;20.67;;;14.50;97.10;;;;;;5029190;28;20430;-71
2022/10/11 05:02:30;;;;;;;47.47;20.73;;;14.50;97.10;;;;;;5029092;28;20214;-71
2022/10/11 05:04:56;;;;;;;44.50;18.37;;;14.40;97.30;;;;;;5028994;28;20455;-71
2022/10/11 05:07:21;;;;;;;42.10;18.77;;;14.50;97.40;;;;;;5030498;28;20563;-71
2022/10/11 05:09:47;;;;;;;45.63;21.40;;;14.60;97.50;;;;;;5031019;28;20177;-71
2022/10/11 05:12:12;;;;;;;51.60;20.97;;;14.60;97.20;;;;;;5031412;28;20185;-71
2022/10/11 05:14:38;;;;;;;46.73;21.90;;;14.60;97.10;;;;;;5030308;28;20214;-72
2022/10/11 05:17:03;;;;;;;46.47;20.30;;;14.50;96.90;;;;;;5027241;28;20671;-70
2022/10/11 05:19:29;;;;;;;41.57;19.00;;;14.40;97.00;;;;;;5033516;28;20551;-72
2022/10/11 05:21:55;;;;;;;45.30;19.73;;;14.40;97.10;;;;;;5031162;28;20271;-71
2022/10/11 05:24:20;;;;;;;51.73;21.40;;;14.50;97.10;;;;;;5032157;28;20264;-71
2022/10/11 05:26:46;;;;;;;47.70;21.97;;;14.40;97.10;;;;;;5030727;28;20668;-71
2022/10/11 05:29:12;;;;;;;45.93;20.93;;;14.40;97.10;;;;;;5032900;28;20685;-70
2022/10/11 05:31:37;;;;;;;50.07;20.23;;;14.40;97.30;;;;;;5026487;28;20194;-72
2022/10/11 05:34:03;;;;;;;40.53;18.80;;;14.20;97.20;;;;;;5033732;28;20187;-71
2022/10/11 05:36:29;;;;;;;48.30;22.47;;;14.30;97.40;;;;;;5027681;28;20216;-71
2022/10/11 05:38:54;;;;;;;50.87;20.80;;;14.30;97.30;;;;;;5030716;28;20192;-71
2022/10/11 05:41:20;;;;;;;44.30;21.83;;;14.30;97.30;;;;;;5031922;28;20280;-72
2022/10/11 05:43:45;;;;;;;51.97;20.90;;;14.20;97.40;;;;;;5030663;28;20181;-72
2022/10/11 05:46:11;;;;;;;40.83;18.87;;;14.20;97.50;;;;;;5026490;28;20206;-71
2022/10/11 05:48:38;;;;;;;41.63;18.83;;;14.20;97.60;;;;;;5031027;28;20178;-71
2022/10/11 05:51:06;;;;;;;50.23;19.80;;;14.30;97.70;;;;;;5027703;28;20455;-71
2022/10/11 05:53:32;;;;;;;48.20;22.87;;;14.30;97.30;;;;;;5029792;28;20468;-72
2022/10/11 05:55:58;;;;;;;57.27;21.87;;;14.20;97.30;;;;;;5023587;28;20459;-72
2022/10/11 05:58:24;;;;;;;50.50;21.37;;;14.20;97.30;;;;;;5030864;28;20435;-71
2022/10/11 06:00:49;;;;;;;51.53;21.60;;;14.20;97.30;;;;;;5030365;28;20446;-72
2022/10/11 06:03:15;;;;;;;54.43;21.33;;;14.10;97.40;;;;;;5029982;28;20416;-71
2022/10/11 06:05:41;;;;;;;65.03;20.53;;;14.10;97.50;;;;;;5022657;28;20209;-71
2022/10/11 06:08:07;;;;;;;49.30;21.83;;;14.10;97.50;;;;;;5025772;28;20251;-71
2022/10/11 06:10:34;;;;;;;47.93;19.60;;;14.10;97.40;;;;;;5025241;28;20795;-73
2022/10/11 06:13:00;;;;;;;46.00;21.90;;;14.00;97.40;;;;;;5029523;28;20503;-72
2022/10/11 06:15:25;;;;;;;45.30;21.30;;;14.10;97.50;;;;;;5026033;28;20534;-72
2022/10/11 06:17:51;;;;;;;43.87;20.17;;;14.00;97.50;;;;;;5024302;28;20181;-70
2022/10/11 06:20:17;;;;;;;47.40;20.70;;;14.00;97.40;;;;;;5030130;28;20432;-72
2022/10/11 06:22:43;;;;;;;52.60;20.23;;;14.00;97.40;;;;;;5023283;28;21046;-71
2022/10/11 06:25:09;;;;;;;47.73;19.00;;;14.00;97.40;;;;;;5025229;28;20202;-72
2022/10/11 06:27:35;;;;;;;53.33;21.47;;;14.10;97.40;;;;;;5044624;28;20575;-72
2022/10/11 06:30:01;;;;;;;51.97;21.67;;;14.10;97.50;;;;;;5028854;28;20408;-73
2022/10/11 06:32:27;;;;;;;38.30;19.70;;;14.10;97.20;;;;;;5025210;28;20419;-71
2022/10/11 06:34:53;;;;;;;48.50;20.53;;;14.10;97.10;;;;;;5025286;28;20209;-71
2022/10/11 06:37:18;;;;;;;37.87;19.00;;;14.10;97.00;;;;;;5031702;28;20434;-72
2022/10/11 06:39:44;;;;;;;37.70;17.87;;;14.10;97.10;;;;;;5027698;28;20238;-70
2022/10/11 06:42:10;;;;;;;42.47;18.85;;;14.20;97.10;;;;;;4292142;28;21052021;-74
2022/10/11 06:44:37;;;;;;;42.90;20.60;;;14.20;96.80;;;;;;5028442;28;20207;-71
2022/10/11 06:47:04;;;;;;;50.23;19.80;;;14.10;96.30;;;;;;5028862;28;20590;-72
2022/10/11 06:49:29;;;;;;;41.33;19.20;;;14.10;96.40;;;;;;5029859;28;20498;-71
2022/10/11 06:51:55;;;;;;;41.87;20.70;;;14.00;96.50;;;;;;5027100;28;20979;-71
2022/10/11 06:54:20;;;;;;;39.20;18.67;;;14.00;96.50;;;;;;5029909;28;20182;-72
2022/10/11 06:56:46;;;;;;;47.23;20.50;;;14.00;96.80;;;;;;5022892;28;20181;-71
2022/10/11 06:59:12;;;;;;;41.23;19.87;;;14.10;96.80;;;;;;5030225;28;20189;-72
2022/10/11 07:01:37;;;;;;;40.00;19.80;;;14.10;96.90;;;;;;5028722;28;20212;-72
2022/10/11 07:04:03;;;;;;;42.87;19.40;;;14.20;96.90;;;;;;5029334;28;20424;-70
2022/10/11 07:06:30;;;;;;;50.60;18.93;;;14.20;96.60;;;;;;5023181;28;20212;-72
2022/10/11 07:08:58;;;;;;;39.50;18.20;;;14.10;96.30;;;;;;5029871;28;20181;-73
2022/10/11 07:11:26;;;;;;;43.63;19.03;;;14.10;96.30;;;;;;5026845;28;20420;-69
2022/10/11 07:13:55;;;;;;;42.03;18.30;;;14.00;96.30;;;;;;5028343;28;20516;-71
2022/10/11 07:16:21;;;;;;;40.63;20.10;;;14.10;96.40;;;;;;5025466;28;20546;-72
2022/10/11 07:18:52;;;;;;;35.27;17.23;;;14.20;96.50;;;;;;5031364;28;20848;-72
2022/10/11 07:21:17;;;;;;;39.20;17.97;;;14.20;96.30;;;;;;5029318;28;20463;-71
2022/10/11 07:23:43;;;;;;;49.80;17.47;;;14.20;96.10;;;;;;5026774;28;20447;-71
2022/10/11 07:26:10;;;;;;;37.00;17.03;;;14.10;95.90;;;;;;5026811;28;20201;-72
2022/10/11 07:28:36;;;;;;;41.47;17.43;;;14.20;96.00;;;;;;5026965;28;20181;-73
2022/10/11 07:31:22;;;;;;;36.80;17.30;;;14.20;95.90;;;;;;5029653;28;20424;-71
2022/10/11 07:33:47;;;;;;;45.40;19.13;;;14.20;95.70;;;;;;5025417;28;20416;-72
2022/10/11 07:36:13;;;;;;;33.20;17.43;;;14.20;95.70;;;;;;5027361;28;20563;-71
2022/10/11 07:38:40;;;;;;;36.40;18.83;;;14.20;95.80;;;;;;5028699;28;20657;-71
2022/10/11 07:41:07;;;;;;;39.27;19.00;;;14.20;95.80;;;;;;5029368;28;20287;-72
2022/10/11 07:43:33;;;;;;;40.57;20.13;;;14.30;95.80;;;;;;5044720;28;20435;-70
2022/10/11 07:46:02;;;;;;;38.03;18.73;;;14.30;95.80;;;;;;5022023;28;20456;-71
2022/10/11 07:48:29;;;;;;;40.87;20.40;;;14.30;95.80;;;;;;5029723;28;20428;-72
2022/10/11 07:51:05;;;;;;;41.30;17.80;;;14.30;95.80;;;;;;5026494;28;20424;-72
2022/10/11 07:53:31;;;;;;;34.50;18.93;;;14.30;95.80;;;;;;5025452;28;20415;-71
2022/10/11 07:56:00;;;;;;;35.60;17.57;;;14.30;95.80;;;;;;5024765;28;20465;-72
2022/10/11 07:58:26;;;;;;;40.60;18.40;;;14.40;95.80;;;;;;5044169;28;20409;-70
2022/10/11 08:00:53;;;;;;;38.50;18.30;;;14.50;95.50;;;;;;5041062;28;20500;-71
2022/10/11 08:03:18;;;;;;;42.03;18.27;;;14.60;95.60;;;;;;5042546;28;20173;-71
2022/10/11 08:05:44;;;;;;;41.97;16.87;;;14.70;95.50;;;;;;5033017;28;20979;-71
2022/10/11 08:08:10;;;;;;;40.80;19.27;;;14.70;94.90;;;;;;5041694;28;20190;-72
2022/10/11 08:10:39;;;;;;;36.63;17.80;;;14.70;94.90;;;;;;5037613;28;20193;-73
2022/10/11 08:13:05;;;;;;;34.47;18.23;;;14.60;94.80;;;;;;5039218;28;20225;-71
2022/10/11 08:15:31;;;;;;;36.17;18.43;;;14.60;94.90;;;;;;5035118;28;20463;-71
2022/10/11 08:17:56;;;;;;;43.30;19.30;;;14.60;94.80;;;;;;5032167;28;20189;-71
2022/10/11 08:20:22;;;;;;;43.87;19.33;;;14.70;94.80;;;;;;5027582;28;20221;-71
2022/10/11 08:22:48;;;;;;;51.83;20.40;;;14.60;94.90;;;;;;5028712;28;20299;-71
2022/10/11 08:25:13;;;;;;;45.27;20.13;;;14.50;94.90;;;;;;5027121;28;20677;-73
2022/10/11 08:27:39;;;;;;;36.20;19.63;;;14.40;95.20;;;;;;5037453;28;20200;-71
2022/10/11 08:30:05;;;;;;;39.10;20.67;;;14.40;95.60;;;;;;5039149;28;20201;-71
2022/10/11 08:32:31;;;;;;;39.40;19.70;;;14.40;95.60;;;;;;5037548;28;20226;-71
2022/10/11 08:34:56;;;;;;;37.90;19.27;;;14.40;95.40;;;;;;5030155;28;20851;-71
2022/10/11 08:37:22;;;;;;;40.23;19.80;;;14.30;95.20;;;;;;5033213;28;20650;-72
2022/10/11 08:39:47;;;;;;;46.20;20.10;;;14.20;95.60;;;;;;5028134;28;20185;-70
2022/10/11 08:42:33;;;;;;;45.10;19.90;;;14.20;95.80;;;;;;5029182;28;20213;-73
2022/10/11 08:45:07;;;;;;;43.97;20.40;;;14.30;96.10;;;;;;5022731;28;20296;-72
2022/10/11 08:47:37;;;;;;;41.07;18.00;;;14.30;96.00;;;;;;5028671;28;20416;-71
2022/10/11 08:50:06;;;;;;;39.00;20.40;;;14.40;95.90;;;;;;5029551;28;20427;-73
2022/10/11 08:52:58;;;;;;;39.70;19.93;;;14.30;95.40;;;;;;5028152;28;20442;-72
2022/10/11 08:55:44;;;;;;;44.10;21.70;;;14.20;95.40;;;;;;5029589;28;20460;-72
2022/10/11 08:58:19;;;;;;;50.57;20.80;;;14.30;95.90;;;;;;5025586;28;20428;-72
2022/10/11 09:00:47;;;;;;;37.70;20.03;;;14.30;95.80;;;;;;5028432;28;20431;-73
2022/10/11 09:03:37;;;;;;;46.23;20.83;;;14.40;95.60;;;;;;5028524;28;20460;-71
2022/10/11 09:06:06;;;;;;;42.30;20.20;;;14.40;95.60;;;;;;5021699;28;20478;-71
2022/10/11 09:08:38;;;;;;;52.27;20.67;;;14.50;95.40;;;;;;5027514;28;20412;-71
2022/10/11 09:11:06;;;;;;;37.93;19.73;;;14.50;94.90;;;;;;5031844;28;20412;-70
2022/10/11 09:14:01;;;;;;;43.50;21.57;;;14.60;94.90;;;;;;5027240;28;20413;-71
2022/10/11 09:17:03;;;;;;;39.80;19.67;;;14.50;94.90;;;;;;5013184;28;20462;-70
2022/10/11 09:19:37;;;;;;;40.40;18.87;;;14.60;94.90;;;;;;5026647;28;20517;-70
2022/10/11 09:22:21;;;;;;;42.07;20.17;;;14.50;94.70;;;;;;5020907;28;20448;-72
2022/10/11 09:25:09;;;;;;;52.73;23.17;;;14.30;95.00;;;;;;5027896;28;20479;-71
2022/10/11 09:27:45;;;;;;;47.63;21.90;;;14.20;95.30;;;;;;5032332;28;20501;-70
2022/10/11 09:30:16;;;;;;;59.63;23.80;;;14.20;95.60;;;;;;5026859;28;20920;-71
2022/10/11 09:32:45;;;;;;;35.83;18.90;;;14.20;95.60;;;;;;5031564;28;20424;-71
2022/10/11 09:35:17;;;;;;;50.10;21.97;;;14.30;95.60;;;;;;5027146;28;20550;-71
2022/10/11 09:38:11;;;;;;;42.60;20.70;;;14.30;94.90;;;;;;5033203;28;20423;-70
2022/10/11 09:40:46;;;;;;;46.17;21.10;;;14.30;95.40;;;;;;5034926;28;20453;-71
2022/10/11 09:43:12;;;;;;;48.30;21.43;;;14.40;95.40;;;;;;5034615;28;20471;-72
2022/10/11 09:45:43;;;;;;;47.27;20.40;;;14.50;95.20;;;;;;5029826;28;21025;-71
2022/10/11 09:48:15;;;;;;;53.87;21.80;;;14.50;94.90;;;;;;5033688;28;20184;-71
2022/10/11 09:50:42;;;;;;;47.63;22.23;;;14.60;94.70;;;;;;5035418;28;20446;-71
2022/10/11 09:53:07;;;;;;;49.27;21.60;;;14.60;94.50;;;;;;5028304;28;20427;-71
2022/10/11 09:55:35;;;;;;;49.20;21.27;;;14.60;94.20;;;;;;5029855;28;20459;-70
2022/10/11 09:58:02;;;;;;;42.60;20.60;;;14.60;94.20;;;;;;5036008;28;20295;-71
2022/10/11 10:00:32;;;;;;;48.50;19.90;;;14.70;94.30;;;;;;5034900;28;20487;-71
2022/10/11 10:03:01;;;;;;;50.37;21.20;;;14.70;94.00;;;;;;5036031;28;20565;-70
2022/10/11 10:05:37;;;;;;;43.07;19.63;;;14.80;93.80;;;;;;5031682;28;20817;-70
2022/10/11 10:08:02;;;;;;;42.57;20.23;;;14.80;93.60;;;;;;5025479;28;20472;-71
2022/10/11 10:10:34;;;;;;;47.30;20.73;;;14.60;93.80;;;;;;5033882;28;20420;-73
2022/10/11 10:13:02;;;;;;;43.83;20.17;;;14.50;94.30;;;;;;5024103;28;20190;-72
2022/10/11 10:15:36;;;;;;;44.20;20.87;;;14.50;94.50;;;;;;5031076;28;20471;-71
2022/10/11 10:18:05;;;;;;;40.90;20.97;;;14.60;94.40;;;;;;5028858;28;20424;-71
2022/10/11 10:20:35;;;;;;;52.57;20.20;;;14.70;94.60;;;;;;5028887;28;20433;-71
2022/10/11 10:23:23;;;;;;;41.93;20.17;;;14.60;93.90;;;;;;5035184;28;20998;-71
2022/10/11 10:25:50;;;;;;;38.23;19.00;;;14.70;94.00;;;;;;5025638;28;20460;-71
2022/10/11 10:28:26;;;;;;;45.03;20.10;;;14.80;93.90;;;;;;5034907;28;21184;-71
2022/10/11 10:30:58;;;;;;;46.33;20.37;;;14.90;93.80;;;;;;5034762;28;20423;-72
2022/10/11 10:33:34;;;;;;;47.93;20.40;;;15.00;93.30;;;;;;5033002;28;20759;-71
2022/10/11 10:36:13;;;;;;;48.33;19.53;;;15.10;93.10;;;;;;5027166;28;20466;-71
2022/10/11 10:38:46;;;;;;;44.33;19.83;;;15.00;92.80;;;;;;5032918;28;20433;-70
2022/10/11 10:41:15;;;;;;;49.17;19.00;;;15.10;92.90;;;;;;5034230;28;20543;-72
2022/10/11 10:43:52;;;;;;;40.90;19.60;;;15.20;92.70;;;;;;5032411;28;20560;-71
2022/10/11 10:46:34;;;;;;;40.53;19.00;;;15.10;92.20;;;;;;5028405;28;20452;-70
2022/10/11 10:49:24;;;;;;;36.70;18.10;;;15.10;92.20;;;;;;5032897;28;20458;-70
2022/10/11 10:52:15;;;;;;;41.93;19.30;;;15.20;92.10;;;;;;5027571;28;21243;-71
2022/10/11 10:54:56;;;;;;;41.83;18.63;;;15.10;92.10;;;;;;5028196;28;20433;-73
2022/10/11 10:57:27;;;;;;;44.27;19.70;;;15.10;92.30;;;;;;5027907;28;20447;-71
2022/10/11 11:00:10;;;;;;;43.83;18.97;;;15.00;92.40;;;;;;5030084;28;20432;-71
2022/10/11 11:02:57;;;;;;;40.40;18.30;;;15.00;92.40;;;;;;5029221;28;20473;-70
2022/10/11 11:05:47;;;;;;;43.87;18.67;;;15.10;92.50;;;;;;5027091;28;20455;-72
2022/10/11 11:08:31;;;;;;;37.80;18.50;;;15.20;92.00;;;;;;5022193;28;20429;-71
2022/10/11 11:11:30;;;;;;;43.53;17.80;;;15.10;92.20;;;;;;5024504;28;20416;-72
2022/10/11 11:14:20;;;;;;;49.50;17.77;;;15.20;92.00;;;;;;5017605;28;20478;-70
2022/10/11 11:16:54;;;;;;;39.50;17.17;;;15.30;92.00;;;;;;5027614;28;20523;-70
2022/10/11 11:19:32;;;;;;;43.23;18.77;;;15.20;91.80;;;;;;5031145;28;20522;-70
2022/10/11 11:22:18;;;;;;;37.63;16.43;;;15.30;91.60;;;;;;5029839;28;20513;-72
2022/10/11 11:25:13;;;;;;;36.30;17.13;;;15.30;91.50;;;;;;5027593;28;20467;-71
2022/10/11 11:28:00;;;;;;;40.13;17.00;;;15.30;91.60;;;;;;5029124;28;20507;-71
2022/10/11 11:30:53;;;;;;;38.60;17.10;;;15.40;91.90;;;;;;5025521;28;20507;-70
2022/10/11 11:33:57;;;;;;;28.70;16.10;;;15.50;91.30;;;;;;5029082;28;20448;-71
2022/10/11 11:36:41;;;;;;;29.27;15.27;;;15.50;91.20;;;;;;5018848;28;20469;-70
2022/10/11 11:39:15;;;;;;;43.73;17.50;;;15.70;91.10;;;;;;5027442;28;20435;-70
2022/10/11 11:41:48;;;;;;;33.37;15.57;;;15.90;90.30;;;;;;5028489;28;20479;-70
2022/10/11 11:44:33;;;;;;;40.43;16.13;;;15.90;90.10;;;;;;5030487;28;20744;-70
2022/10/11 11:47:04;;;;;;;35.60;16.87;;;16.00;89.50;;;;;;5027706;28;20432;-70
2022/10/11 11:49:33;;;;;;;31.83;16.30;;;15.70;89.90;;;;;;5033730;28;20419;-70
2022/10/11 11:52:12;;;;;;;36.10;15.53;;;15.60;90.30;;;;;;5026208;28;20952;-72
2022/10/11 11:54:49;;;;;;;41.17;17.13;;;15.50;90.50;;;;;;5029248;28;20444;-72
2022/10/11 11:57:35;;;;;;;25.87;15.30;;;15.50;90.80;;;;;;5028925;28;20441;-70
2022/10/11 12:00:22;;;;;;;39.30;16.50;;;15.60;90.60;;;;;;5031217;28;20428;-71
2022/10/11 12:02:57;;;;;;;27.53;14.70;;;15.80;90.10;;;;;;5035067;28;20510;-70
2022/10/11 12:05:32;;;;;;;26.47;13.40;;;15.90;89.70;;;;;;5030455;28;20469;-73
2022/10/11 12:08:01;;;;;;;30.13;13.77;;;16.10;88.60;;;;;;5036781;28;20553;-71
2022/10/11 12:10:30;;;;;;;31.03;15.33;;;16.30;87.60;;;;;;5025456;28;20426;-71
2022/10/11 12:13:08;;;;;;;35.67;14.20;;;16.20;86.30;;;;;;5029599;28;20437;-71
2022/10/11 12:15:34;;;;;;;25.80;13.73;;;16.20;86.90;;;;;;5023367;28;20955;-70
2022/10/11 12:18:03;;;;;;;23.80;13.00;;;16.00;86.80;;;;;;5028754;28;20523;-71
2022/10/11 12:20:35;;;;;;;27.13;14.60;;;16.10;87.40;;;;;;5025517;28;20434;-71
2022/10/11 12:23:17;;;;;;;32.70;13.73;;;16.00;87.70;;;;;;5028496;28;20482;-71
2022/10/11 12:25:43;;;;;;;24.23;14.20;;;16.10;88.00;;;;;;5025557;28;21004;-70
2022/10/11 12:28:37;;;;;;;28.70;16.90;;;16.40;87.40;;;;;;5027139;28;20434;-71
2022/10/11 12:31:15;;;;;;;29.00;13.83;;;16.00;87.70;;;;;;5023374;28;20415;-71
2022/10/11 12:33:41;;;;;;;23.27;13.40;;;15.90;88.40;;;;;;5023894;28;20510;-71
2022/10/11 12:36:28;;;;;;;26.27;13.53;;;16.00;88.60;;;;;;5026571;28;20542;-70
2022/10/11 12:39:19;;;;;;;27.53;14.20;;;16.00;87.80;;;;;;5022521;28;20188;-70
2022/10/11 12:41:47;;;;;;;30.80;14.40;;;16.20;87.70;;;;;;5028970;28;20466;-71
2022/10/11 12:44:25;;;;;;;29.93;13.70;;;16.10;87.60;;;;;;5026830;28;20431;-71
2022/10/11 12:46:53;;;;;;;24.33;13.00;;;16.20;87.80;;;;;;5021739;28;20959;-70
2022/10/11 12:49:40;;;;;;;31.53;14.53;;;15.90;88.10;;;;;;5029388;28;20435;-71